createdAt,value
2018-12-17T00:00:17.254Z,1.84
2018-12-17T00:00:57.818Z,1.87
2018-12-17T00:01:38.410Z,1.91
2018-12-17T00:02:18.962Z,1.94
2018-12-17T00:02:59.503Z,1.95
2018-12-17T00:03:40.097Z,1.94
2018-12-17T00:04:20.662Z,1.94
2018-12-17T00:05:01.472Z,1.94
2018-12-17T00:05:42.089Z,1.81
2018-12-17T00:06:22.589Z,1.89
2018-12-17T00:07:03.169Z,1.88
2018-12-17T00:07:43.758Z,1.91
2018-12-17T00:08:24.337Z,1.81
2018-12-17T00:09:04.952Z,1.81
2018-12-17T00:09:45.538Z,1.78
2018-12-17T00:10:26.128Z,1.8
2018-12-17T00:11:06.658Z,1.89
2018-12-17T00:11:47.238Z,1.84
2018-12-17T00:12:27.820Z,1.81
2018-12-17T00:13:08.400Z,1.78
2018-12-17T00:13:48.963Z,1.88
2018-12-17T00:14:29.523Z,1.84
2018-12-17T00:15:10.092Z,1.85
2018-12-17T00:15:50.649Z,1.97
2018-12-17T00:16:31.246Z,1.89
2018-12-17T00:17:11.812Z,1.92
2018-12-17T00:17:52.384Z,1.94
2018-12-17T00:18:32.942Z,1.94
2018-12-17T00:19:13.558Z,1.95
2018-12-17T00:19:54.120Z,1.94
2018-12-17T00:20:34.707Z,2.02
2018-12-17T00:21:15.288Z,1.89
2018-12-17T00:21:55.853Z,1.92
2018-12-17T00:22:36.410Z,1.97
2018-12-17T00:23:16.960Z,1.97
2018-12-17T00:23:57.519Z,2.04
2018-12-17T00:24:38.137Z,2.08
2018-12-17T00:25:18.671Z,1.99
2018-12-17T00:25:59.247Z,2.08
2018-12-17T00:26:39.802Z,1.99
2018-12-17T00:27:20.346Z,1.97
2018-12-17T00:28:07.940Z,2.04
2018-12-17T00:28:41.457Z,2.08
2018-12-17T00:29:22.014Z,2.02
2018-12-17T00:30:02.666Z,2
2018-12-17T00:30:43.175Z,1.95
2018-12-17T00:31:23.744Z,1.92
2018-12-17T00:32:04.304Z,1.92
2018-12-17T00:32:44.857Z,1.94
2018-12-17T00:33:25.561Z,1.89
2018-12-17T00:34:06.105Z,1.89
2018-12-17T00:34:46.913Z,1.85
2018-12-17T00:35:27.471Z,1.85
2018-12-17T00:36:08.035Z,1.88
2018-12-17T00:36:48.608Z,1.92
2018-12-17T00:37:29.176Z,1.81
2018-12-17T00:38:09.796Z,1.88
2018-12-17T00:38:50.301Z,1.88
2018-12-17T00:39:30.863Z,1.81
2018-12-17T00:40:11.456Z,1.78
2018-12-17T00:40:52.029Z,1.76
2018-12-17T00:41:32.577Z,1.8
2018-12-17T00:42:13.156Z,1.81
2018-12-17T00:42:53.714Z,1.88
2018-12-17T00:43:34.286Z,1.87
2018-12-17T00:44:14.878Z,1.88
2018-12-17T00:44:55.470Z,1.92
2018-12-17T00:45:36.077Z,1.92
2018-12-17T00:46:16.679Z,1.97
2018-12-17T00:46:57.248Z,1.95
2018-12-17T00:47:37.884Z,1.95
2018-12-17T00:48:18.446Z,1.97
2018-12-17T00:48:59.026Z,1.95
2018-12-17T00:49:39.616Z,1.97
2018-12-17T00:50:20.172Z,2.02
2018-12-17T00:51:00.743Z,1.95
2018-12-17T00:51:41.305Z,1.95
2018-12-17T00:52:21.847Z,1.94
2018-12-17T00:53:02.433Z,2
2018-12-17T00:53:42.997Z,1.97
2018-12-17T00:54:23.572Z,2
2018-12-17T00:55:04.149Z,2.04
2018-12-17T00:55:44.742Z,2.04
2018-12-17T00:56:25.302Z,2.04
2018-12-17T00:57:05.850Z,2.02
2018-12-17T00:57:46.414Z,2.02
2018-12-17T00:58:26.967Z,1.97
2018-12-17T00:59:07.525Z,2.07
2018-12-17T00:59:48.077Z,2.1
2018-12-17T01:00:28.628Z,2.07
2018-12-17T01:01:09.187Z,2.15
2018-12-17T01:01:49.763Z,2.14
2018-12-17T01:02:30.323Z,2.1
2018-12-17T01:03:10.884Z,2.13
2018-12-17T01:03:51.450Z,2.07
2018-12-17T01:04:32.011Z,2.1
2018-12-17T01:05:12.563Z,2.08
2018-12-17T01:05:53.110Z,2.13
2018-12-17T01:06:33.700Z,2.06
2018-12-17T01:07:14.262Z,2.06
2018-12-17T01:07:54.823Z,2.08
2018-12-17T01:08:35.390Z,2.1
2018-12-17T01:09:15.945Z,2.14
2018-12-17T01:09:56.507Z,2.15
2018-12-17T01:10:37.074Z,2.14
2018-12-17T01:11:17.621Z,2.15
2018-12-17T01:11:58.181Z,2.07
2018-12-17T01:12:38.738Z,2.14
2018-12-17T01:13:19.290Z,2.14
2018-12-17T01:13:59.890Z,2.1
2018-12-17T01:14:40.420Z,2.15
2018-12-17T01:15:21.030Z,2.14
2018-12-17T01:16:01.605Z,2.11
2018-12-17T01:16:42.193Z,2.14
2018-12-17T01:17:22.764Z,2.13
2018-12-17T01:18:03.326Z,2.2
2018-12-17T01:18:43.875Z,2.11
2018-12-17T01:19:24.434Z,2.15
2018-12-17T01:20:04.987Z,2.14
2018-12-17T01:20:45.543Z,2.13
2018-12-17T01:21:26.091Z,2.11
2018-12-17T01:22:06.637Z,2.17
2018-12-17T01:22:47.251Z,2.14
2018-12-17T01:23:27.799Z,2.2
2018-12-17T01:24:08.346Z,2.14
2018-12-17T01:24:48.914Z,2.15
2018-12-17T01:25:29.480Z,2.15
2018-12-17T01:26:10.055Z,2.14
2018-12-17T01:26:50.615Z,2.13
2018-12-17T01:27:31.182Z,2.13
2018-12-17T01:28:11.741Z,2.11
2018-12-17T01:28:52.303Z,2.13
2018-12-17T01:29:32.860Z,2.11
2018-12-17T01:30:13.448Z,2.08
2018-12-17T01:30:54.003Z,2.11
2018-12-17T01:31:34.596Z,2.1
2018-12-17T01:32:15.147Z,2.1
2018-12-17T01:32:55.772Z,2.14
2018-12-17T01:33:36.359Z,2.13
2018-12-17T01:34:16.909Z,2.17
2018-12-17T01:34:57.696Z,2.14
2018-12-17T01:35:38.249Z,2.13
2018-12-17T01:36:18.835Z,2.1
2018-12-17T01:36:59.408Z,2.14
2018-12-17T01:37:39.973Z,2.08
2018-12-17T01:38:20.756Z,2.11
2018-12-17T01:39:01.301Z,2.14
2018-12-17T01:39:41.867Z,2.13
2018-12-17T01:40:22.486Z,2.13
2018-12-17T01:41:03.075Z,2.1
2018-12-17T01:41:43.639Z,2.11
2018-12-17T01:42:24.211Z,2.08
2018-12-17T01:43:04.782Z,2.13
2018-12-17T01:43:45.351Z,2.13
2018-12-17T01:44:25.969Z,2.13
2018-12-17T01:45:06.544Z,2.13
2018-12-17T01:45:47.152Z,2.13
2018-12-17T01:46:27.698Z,2.15
2018-12-17T01:47:08.365Z,2.24
2018-12-17T01:47:48.916Z,2.2
2018-12-17T01:48:29.473Z,2.08
2018-12-17T01:49:10.051Z,2.18
2018-12-17T01:49:50.621Z,2.07
2018-12-17T01:50:31.181Z,2.07
2018-12-17T01:51:11.724Z,2.14
2018-12-17T01:51:52.284Z,2.14
2018-12-17T01:52:32.830Z,2.2
2018-12-17T01:53:13.393Z,2.13
2018-12-17T01:53:53.941Z,2.1
2018-12-17T01:54:34.545Z,2.15
2018-12-17T01:55:15.090Z,2.07
2018-12-17T01:55:55.668Z,2.13
2018-12-17T01:56:36.231Z,2.18
2018-12-17T01:57:16.803Z,2.26
2018-12-17T01:57:57.358Z,2.1
2018-12-17T01:58:37.912Z,2.06
2018-12-17T01:59:18.472Z,2.24
2018-12-17T01:59:59.028Z,2.11
2018-12-17T02:00:39.589Z,2.25
2018-12-17T02:01:20.155Z,2.25
2018-12-17T02:02:00.720Z,2.25
2018-12-17T02:02:41.287Z,2.25
2018-12-17T02:03:21.860Z,2.28
2018-12-17T02:04:02.450Z,2.24
2018-12-17T02:04:43.023Z,2.13
2018-12-17T02:05:23.598Z,2.11
2018-12-17T02:06:04.152Z,2.15
2018-12-17T02:06:44.701Z,2.14
2018-12-17T02:07:25.265Z,2.13
2018-12-17T02:08:05.815Z,2.15
2018-12-17T02:08:46.375Z,2.13
2018-12-17T02:09:26.940Z,2.11
2018-12-17T02:10:07.488Z,2.13
2018-12-17T02:10:48.039Z,2.08
2018-12-17T02:11:28.596Z,2.13
2018-12-17T02:12:09.152Z,2.07
2018-12-17T02:12:49.694Z,2.08
2018-12-17T02:13:30.252Z,2.08
2018-12-17T02:14:10.793Z,2.13
2018-12-17T02:14:51.359Z,2.11
2018-12-17T02:15:31.920Z,2.04
2018-12-17T02:16:12.505Z,2
2018-12-17T02:16:53.097Z,2.06
2018-12-17T02:17:33.652Z,2
2018-12-17T02:18:14.202Z,2.04
2018-12-17T02:18:54.749Z,2
2018-12-17T02:19:35.312Z,1.95
2018-12-17T02:20:15.855Z,2.04
2018-12-17T02:20:56.402Z,1.92
2018-12-17T02:21:36.954Z,1.89
2018-12-17T02:22:17.507Z,1.91
2018-12-17T02:22:58.054Z,2
2018-12-17T02:23:38.611Z,1.94
2018-12-17T02:24:19.167Z,1.91
2018-12-17T02:24:59.727Z,1.95
2018-12-17T02:25:40.289Z,2
2018-12-17T02:26:20.853Z,1.95
2018-12-17T02:27:01.422Z,1.95
2018-12-17T02:27:41.974Z,1.92
2018-12-17T02:28:22.519Z,1.89
2018-12-17T02:29:03.115Z,1.94
2018-12-17T02:29:43.669Z,1.94
2018-12-17T02:30:24.226Z,1.92
2018-12-17T02:31:04.773Z,1.92
2018-12-17T02:31:45.321Z,1.99
2018-12-17T02:32:25.879Z,1.89
2018-12-17T02:33:06.448Z,1.95
2018-12-17T02:33:46.999Z,1.92
2018-12-17T02:34:27.824Z,2
2018-12-17T02:35:08.380Z,1.99
2018-12-17T02:35:48.940Z,2.06
2018-12-17T02:36:29.497Z,1.95
2018-12-17T02:37:10.061Z,1.99
2018-12-17T02:37:50.642Z,2
2018-12-17T02:38:31.197Z,1.99
2018-12-17T02:39:11.765Z,1.95
2018-12-17T02:39:52.318Z,1.95
2018-12-17T02:40:32.886Z,1.97
2018-12-17T02:41:13.443Z,2.04
2018-12-17T02:41:53.991Z,2.13
2018-12-17T02:42:34.540Z,2.04
2018-12-17T02:43:15.117Z,2.11
2018-12-17T02:43:55.696Z,2.08
2018-12-17T02:44:36.256Z,2.11
2018-12-17T02:45:16.825Z,2.13
2018-12-17T02:45:57.389Z,2.07
2018-12-17T02:46:37.933Z,2.08
2018-12-17T02:47:18.525Z,2.13
2018-12-17T02:47:59.089Z,2.07
2018-12-17T02:48:39.657Z,2.15
2018-12-17T02:49:20.218Z,2.08
2018-12-17T02:50:00.809Z,2.13
2018-12-17T02:50:41.339Z,2.14
2018-12-17T02:51:21.888Z,2.11
2018-12-17T02:52:02.463Z,2.11
2018-12-17T02:52:43.020Z,2.1
2018-12-17T02:53:23.569Z,2.08
2018-12-17T02:54:04.116Z,2.1
2018-12-17T02:54:44.725Z,2.14
2018-12-17T02:55:25.254Z,2.14
2018-12-17T02:56:05.800Z,2
2018-12-17T02:56:46.362Z,2.14
2018-12-17T02:57:26.921Z,2.11
2018-12-17T02:58:07.499Z,2.17
2018-12-17T02:58:48.059Z,2.15
2018-12-17T02:59:28.617Z,2.15
2018-12-17T03:00:09.164Z,2.24
2018-12-17T03:00:49.715Z,2.18
2018-12-17T03:01:30.304Z,2.25
2018-12-17T03:02:10.843Z,2.24
2018-12-17T03:02:51.450Z,2.2
2018-12-17T03:03:31.962Z,2.26
2018-12-17T03:04:12.505Z,2.2
2018-12-17T03:04:53.063Z,2.22
2018-12-17T03:05:33.612Z,2.24
2018-12-17T03:06:14.170Z,2.24
2018-12-17T03:06:54.722Z,2.18
2018-12-17T03:07:35.300Z,2.18
2018-12-17T03:08:15.848Z,2.15
2018-12-17T03:08:56.423Z,2.25
2018-12-17T03:09:36.968Z,2.2
2018-12-17T03:10:17.534Z,2.31
2018-12-17T03:10:58.088Z,2.29
2018-12-17T03:11:38.664Z,2.25
2018-12-17T03:12:19.226Z,2.36
2018-12-17T03:12:59.782Z,2.25
2018-12-17T03:13:40.325Z,2.24
2018-12-17T03:14:20.879Z,2.25
2018-12-17T03:15:01.444Z,2.26
2018-12-17T03:15:41.982Z,2.26
2018-12-17T03:16:22.590Z,2.25
2018-12-17T03:17:03.183Z,2.28
2018-12-17T03:17:43.827Z,2.31
2018-12-17T03:18:24.409Z,2.32
2018-12-17T03:19:05.030Z,2.36
2018-12-17T03:19:45.607Z,2.35
2018-12-17T03:20:26.279Z,2.28
2018-12-17T03:21:06.811Z,2.35
2018-12-17T03:21:47.369Z,2.35
2018-12-17T03:22:27.937Z,2.31
2018-12-17T03:23:08.508Z,2.31
2018-12-17T03:23:49.102Z,2.33
2018-12-17T03:24:29.642Z,2.35
2018-12-17T03:25:10.194Z,2.38
2018-12-17T03:25:50.754Z,2.33
2018-12-17T03:28:03.608Z,2.36
2018-12-17T03:28:51.368Z,2.42
2018-12-17T03:29:24.700Z,2.43
2018-12-17T03:30:05.232Z,2.38
2018-12-17T03:30:45.779Z,2.44
2018-12-17T03:31:26.380Z,2.46
2018-12-17T03:32:06.927Z,2.44
2018-12-17T03:32:47.494Z,2.44
2018-12-17T03:33:28.044Z,2.43
2018-12-17T03:34:08.629Z,2.43
2018-12-17T03:34:49.495Z,2.43
2018-12-17T03:35:30.040Z,2.51
2018-12-17T03:36:10.591Z,2.46
2018-12-17T03:36:51.155Z,2.46
2018-12-17T03:37:31.720Z,2.44
2018-12-17T03:38:12.274Z,2.42
2018-12-17T03:38:52.872Z,2.46
2018-12-17T03:39:33.420Z,2.46
2018-12-17T03:40:14.004Z,2.33
2018-12-17T03:40:54.566Z,2.42
2018-12-17T03:41:35.083Z,2.39
2018-12-17T03:42:15.641Z,2.36
2018-12-17T03:42:56.188Z,2.44
2018-12-17T03:43:36.735Z,2.42
2018-12-17T03:44:17.285Z,2.36
2018-12-17T03:44:57.886Z,2.44
2018-12-17T03:45:38.415Z,2.47
2018-12-17T03:46:18.955Z,2.44
2018-12-17T03:46:59.521Z,2.44
2018-12-17T03:47:40.063Z,2.46
2018-12-17T03:48:20.593Z,2.49
2018-12-17T03:49:01.145Z,2.47
2018-12-17T03:49:41.714Z,2.49
2018-12-17T03:50:22.266Z,2.46
2018-12-17T03:51:02.831Z,2.44
2018-12-17T03:51:43.397Z,2.49
2018-12-17T03:52:23.944Z,2.44
2018-12-17T03:53:04.483Z,2.44
2018-12-17T03:53:45.030Z,2.49
2018-12-17T03:54:25.579Z,2.47
2018-12-17T03:55:06.134Z,2.51
2018-12-17T03:55:46.691Z,2.47
2018-12-17T03:56:27.236Z,2.47
2018-12-17T03:57:07.790Z,2.44
2018-12-17T03:57:48.341Z,2.46
2018-12-17T03:58:28.899Z,2.49
2018-12-17T03:59:09.452Z,2.51
2018-12-17T03:59:50.026Z,2.44
2018-12-17T04:00:30.607Z,2.46
2018-12-17T04:01:11.187Z,2.35
2018-12-17T04:01:51.741Z,2.36
2018-12-17T04:02:32.325Z,2.29
2018-12-17T04:03:12.891Z,2.33
2018-12-17T04:03:53.474Z,2.42
2018-12-17T04:04:34.029Z,2.35
2018-12-17T04:05:14.580Z,2.36
2018-12-17T04:05:55.140Z,2.26
2018-12-17T04:06:35.706Z,2.28
2018-12-17T04:07:16.259Z,2.36
2018-12-17T04:07:56.799Z,2.28
2018-12-17T04:08:37.363Z,2.22
2018-12-17T04:09:17.945Z,2.26
2018-12-17T04:09:58.507Z,2.24
2018-12-17T04:10:39.911Z,2.25
2018-12-17T04:11:19.616Z,2.25
2018-12-17T04:12:00.161Z,2.28
2018-12-17T04:12:40.722Z,2.24
2018-12-17T04:13:21.285Z,2.24
2018-12-17T04:14:01.847Z,2.22
2018-12-17T04:14:42.409Z,2.15
2018-12-17T04:15:22.948Z,2.24
2018-12-17T04:16:03.496Z,2.22
2018-12-17T04:16:44.037Z,2.2
2018-12-17T04:17:24.575Z,2.22
2018-12-17T04:18:05.119Z,2.18
2018-12-17T04:18:45.694Z,2.18
2018-12-17T04:19:26.261Z,2.26
2018-12-17T04:20:06.794Z,2.28
2018-12-17T04:20:47.354Z,2.29
2018-12-17T04:21:27.919Z,2.22
2018-12-17T04:22:08.493Z,2.26
2018-12-17T04:22:49.050Z,2.32
2018-12-17T04:23:29.601Z,2.32
2018-12-17T04:24:10.164Z,2.32
2018-12-17T04:24:50.737Z,2.35
2018-12-17T04:25:31.285Z,2.29
2018-12-17T04:26:11.840Z,2.28
2018-12-17T04:26:52.399Z,2.29
2018-12-17T04:27:32.939Z,2.32
2018-12-17T04:28:13.534Z,2.31
2018-12-17T04:28:54.143Z,2.36
2018-12-17T04:29:34.711Z,2.31
2018-12-17T04:30:15.260Z,2.32
2018-12-17T04:30:55.900Z,2.31
2018-12-17T04:31:36.419Z,2.32
2018-12-17T04:32:16.977Z,2.28
2018-12-17T04:32:57.523Z,2.31
2018-12-17T04:33:38.070Z,2.33
2018-12-17T04:34:18.625Z,2.29
2018-12-17T04:34:59.205Z,2.33
2018-12-17T04:35:39.787Z,2.28
2018-12-17T04:36:20.366Z,2.26
2018-12-17T04:37:00.911Z,2.22
2018-12-17T04:37:41.484Z,2.26
2018-12-17T04:38:22.086Z,2.24
2018-12-17T04:39:02.650Z,2.17
2018-12-17T04:39:43.231Z,2.26
2018-12-17T04:40:23.768Z,2.26
2018-12-17T04:41:04.325Z,2.25
2018-12-17T04:41:44.871Z,2.25
2018-12-17T04:42:25.415Z,2.25
2018-12-17T04:43:05.987Z,2.32
2018-12-17T04:43:46.581Z,2.33
2018-12-17T04:44:27.117Z,2.32
2018-12-17T04:45:07.671Z,2.32
2018-12-17T04:45:48.223Z,2.31
2018-12-17T04:46:28.793Z,2.33
2018-12-17T04:47:09.366Z,2.36
2018-12-17T04:47:49.925Z,2.35
2018-12-17T04:48:30.479Z,2.42
2018-12-17T04:49:11.042Z,2.36
2018-12-17T04:49:51.600Z,2.42
2018-12-17T04:50:32.163Z,2.43
2018-12-17T04:51:12.732Z,2.43
2018-12-17T04:51:53.320Z,2.43
2018-12-17T04:52:33.891Z,2.44
2018-12-17T04:53:14.434Z,2.49
2018-12-17T04:53:55.009Z,2.51
2018-12-17T04:54:35.567Z,2.43
2018-12-17T04:55:16.123Z,2.47
2018-12-17T04:55:56.674Z,2.49
2018-12-17T04:56:37.235Z,2.46
2018-12-17T04:57:17.812Z,2.47
2018-12-17T04:57:58.353Z,2.39
2018-12-17T04:58:38.901Z,2.43
2018-12-17T04:59:19.455Z,2.57
2018-12-17T05:00:00.004Z,2.56
2018-12-17T05:00:40.558Z,2.49
2018-12-17T05:01:21.124Z,2.46
2018-12-17T05:02:01.677Z,2.54
2018-12-17T05:02:42.244Z,2.51
2018-12-17T05:03:22.792Z,2.49
2018-12-17T05:04:03.385Z,2.56
2018-12-17T05:04:43.933Z,2.6
2018-12-17T05:05:24.492Z,2.6
2018-12-17T05:06:05.088Z,2.56
2018-12-17T05:06:45.660Z,2.6
2018-12-17T05:07:26.215Z,2.57
2018-12-17T05:08:06.772Z,2.61
2018-12-17T05:08:47.327Z,2.57
2018-12-17T05:09:27.883Z,2.54
2018-12-17T05:10:08.441Z,2.57
2018-12-17T05:10:48.993Z,2.54
2018-12-17T05:11:29.570Z,2.6
2018-12-17T05:12:10.144Z,2.61
2018-12-17T05:12:50.697Z,2.57
2018-12-17T05:13:31.275Z,2.6
2018-12-17T05:14:11.855Z,2.6
2018-12-17T05:14:52.443Z,2.57
2018-12-17T05:15:32.981Z,2.62
2018-12-17T05:16:13.570Z,2.64
2018-12-17T05:16:54.122Z,2.53
2018-12-17T05:17:34.672Z,2.64
2018-12-17T05:18:15.249Z,2.57
2018-12-17T05:18:55.831Z,2.64
2018-12-17T05:19:36.454Z,2.6
2018-12-17T05:20:17.014Z,2.61
2018-12-17T05:20:57.563Z,2.61
2018-12-17T05:21:38.119Z,2.65
2018-12-17T05:22:18.681Z,2.64
2018-12-17T05:22:59.282Z,2.65
2018-12-17T05:23:39.825Z,2.68
2018-12-17T05:24:20.959Z,2.62
2018-12-17T05:25:01.558Z,2.57
2018-12-17T05:25:42.134Z,2.6
2018-12-17T05:26:22.834Z,2.64
2018-12-17T05:27:03.638Z,2.61
2018-12-17T05:27:44.227Z,2.61
2018-12-17T05:28:24.904Z,2.54
2018-12-17T05:29:05.594Z,2.65
2018-12-17T05:29:46.621Z,2.57
2018-12-17T05:30:27.875Z,2.6
2018-12-17T05:31:08.536Z,2.62
2018-12-17T05:31:49.240Z,2.54
2018-12-17T05:32:31.452Z,2.49
2018-12-17T05:33:11.362Z,2.51
2018-12-17T05:33:51.903Z,2.56
2018-12-17T05:34:32.690Z,2.46
2018-12-17T05:35:13.243Z,2.51
2018-12-17T05:35:53.820Z,2.46
2018-12-17T05:36:34.445Z,2.49
2018-12-17T05:37:15.938Z,2.5
2018-12-17T05:37:56.652Z,2.49
2018-12-17T05:38:37.320Z,2.44
2018-12-17T05:39:18.019Z,2.46
2018-12-17T05:39:58.746Z,2.38
2018-12-17T05:40:39.520Z,2.43
2018-12-17T05:41:20.254Z,2.47
2018-12-17T05:42:00.940Z,2.44
2018-12-17T05:42:41.567Z,2.42
2018-12-17T05:43:22.350Z,2.46
2018-12-17T05:44:03.065Z,2.5
2018-12-17T05:44:43.630Z,2.51
2018-12-17T05:45:24.197Z,2.43
2018-12-17T05:46:04.758Z,2.44
2018-12-17T05:46:45.292Z,2.49
2018-12-17T05:47:25.845Z,2.44
2018-12-17T05:48:06.600Z,2.46
2018-12-17T05:48:47.282Z,2.49
2018-12-17T05:49:27.856Z,2.47
2018-12-17T05:50:08.426Z,2.5
2018-12-17T05:50:48.978Z,2.49
2018-12-17T05:51:29.548Z,2.49
2018-12-17T05:52:10.268Z,2.47
2018-12-17T05:52:51.141Z,2.47
2018-12-17T05:53:31.936Z,2.53
2018-12-17T05:54:12.573Z,2.5
2018-12-17T05:54:53.258Z,2.42
2018-12-17T05:55:34.092Z,2.51
2018-12-17T05:56:14.934Z,2.47
2018-12-17T05:56:55.921Z,2.49
2018-12-17T05:57:36.772Z,2.43
2018-12-17T05:58:17.834Z,2.51
2018-12-17T05:58:58.516Z,2.42
2018-12-17T05:59:39.274Z,2.44
2018-12-17T06:00:20.062Z,2.53
2018-12-17T06:01:00.900Z,2.51
2018-12-17T06:01:41.686Z,2.6
2018-12-17T06:02:22.493Z,2.5
2018-12-17T06:03:03.207Z,2.57
2018-12-17T06:03:43.745Z,2.56
2018-12-17T06:04:24.289Z,2.57
2018-12-17T06:05:06.098Z,2.57
2018-12-17T06:05:47.084Z,2.57
2018-12-17T06:06:28.150Z,2.6
2018-12-17T06:07:08.946Z,2.6
2018-12-17T06:07:49.503Z,2.62
2018-12-17T06:08:30.216Z,2.53
2018-12-17T06:09:10.767Z,2.62
2018-12-17T06:09:51.337Z,2.57
2018-12-17T06:10:31.920Z,2.57
2018-12-17T06:11:12.482Z,2.54
2018-12-17T06:11:53.042Z,2.44
2018-12-17T06:12:33.596Z,2.5
2018-12-17T06:13:14.141Z,2.51
2018-12-17T06:13:54.686Z,2.43
2018-12-17T06:14:35.251Z,2.49
2018-12-17T06:15:15.821Z,2.47
2018-12-17T06:15:56.376Z,2.5
2018-12-17T06:16:36.967Z,2.49
2018-12-17T06:17:17.519Z,2.49
2018-12-17T06:17:58.083Z,2.47
2018-12-17T06:18:38.644Z,2.49
2018-12-17T06:19:19.178Z,2.5
2018-12-17T06:19:59.764Z,2.49
2018-12-17T06:20:40.318Z,2.56
2018-12-17T06:21:20.897Z,2.49
2018-12-17T06:22:01.443Z,2.5
2018-12-17T06:22:41.999Z,2.47
2018-12-17T06:23:22.558Z,2.49
2018-12-17T06:24:03.114Z,2.44
2018-12-17T06:24:43.671Z,2.47
2018-12-17T06:25:24.226Z,2.42
2018-12-17T06:26:04.804Z,2.44
2018-12-17T06:26:45.357Z,2.43
2018-12-17T06:27:25.931Z,2.49
2018-12-17T06:28:06.483Z,2.47
2018-12-17T06:28:47.054Z,2.36
2018-12-17T06:29:27.604Z,2.43
2018-12-17T06:30:08.180Z,2.42
2018-12-17T06:30:48.730Z,2.47
2018-12-17T06:31:29.297Z,2.44
2018-12-17T06:32:09.862Z,2.43
2018-12-17T06:32:55.002Z,2.47
2018-12-17T06:33:35.558Z,2.47
2018-12-17T06:34:16.133Z,2.5
2018-12-17T06:34:56.911Z,2.5
2018-12-17T06:35:37.487Z,2.49
2018-12-17T06:36:18.035Z,2.43
2018-12-17T06:36:58.679Z,2.47
2018-12-17T06:37:39.303Z,2.49
2018-12-17T06:38:19.929Z,2.44
2018-12-17T06:39:00.611Z,2.47
2018-12-17T06:39:41.200Z,2.44
2018-12-17T06:40:21.730Z,2.47
2018-12-17T06:41:02.283Z,2.42
2018-12-17T06:41:42.863Z,2.44
2018-12-17T06:42:23.416Z,2.42
2018-12-17T06:43:03.990Z,2.43
2018-12-17T06:43:44.571Z,2.44
2018-12-17T06:44:25.133Z,2.43
2018-12-17T06:45:05.731Z,2.49
2018-12-17T06:45:46.273Z,2.46
2018-12-17T06:46:26.841Z,2.44
2018-12-17T06:47:07.433Z,2.47
2018-12-17T06:47:47.979Z,2.47
2018-12-17T06:48:28.548Z,2.44
2018-12-17T06:49:09.119Z,2.39
2018-12-17T06:49:49.667Z,2.46
2018-12-17T06:50:30.240Z,2.43
2018-12-17T06:51:10.774Z,2.44
2018-12-17T06:51:51.329Z,2.44
2018-12-17T06:52:31.898Z,2.44
2018-12-17T06:53:12.467Z,2.44
2018-12-17T06:53:53.015Z,2.5
2018-12-17T06:54:33.585Z,2.44
2018-12-17T06:55:14.139Z,2.47
2018-12-17T06:55:54.687Z,2.5
2018-12-17T06:56:35.238Z,2.46
2018-12-17T06:57:15.812Z,2.46
2018-12-17T06:57:56.367Z,2.46
2018-12-17T06:58:36.931Z,2.44
2018-12-17T06:59:17.491Z,2.47
2018-12-17T06:59:58.041Z,2.43
2018-12-17T07:00:38.601Z,2.47
2018-12-17T07:01:19.163Z,2.46
2018-12-17T07:01:59.730Z,2.47
2018-12-17T07:02:40.285Z,2.47
2018-12-17T07:03:20.909Z,2.44
2018-12-17T07:04:01.498Z,2.5
2018-12-17T07:04:42.133Z,2.51
2018-12-17T07:05:22.714Z,2.43
2018-12-17T07:06:03.270Z,2.42
2018-12-17T07:06:43.889Z,2.42
2018-12-17T07:07:24.448Z,2.33
2018-12-17T07:08:04.995Z,2.33
2018-12-17T07:08:45.586Z,2.31
2018-12-17T07:09:26.222Z,2.29
2018-12-17T07:10:06.777Z,2.35
2018-12-17T07:10:47.340Z,2.31
2018-12-17T07:11:27.889Z,2.31
2018-12-17T07:12:08.465Z,2.32
2018-12-17T07:12:49.047Z,2.33
2018-12-17T07:13:29.615Z,2.29
2018-12-17T07:14:10.179Z,2.38
2018-12-17T07:14:50.735Z,2.33
2018-12-17T07:15:31.326Z,2.38
2018-12-17T07:16:11.926Z,2.35
2018-12-17T07:16:52.441Z,2.43
2018-12-17T07:17:33.050Z,2.43
2018-12-17T07:18:13.620Z,2.43
2018-12-17T07:18:54.389Z,2.44
2018-12-17T07:19:34.982Z,2.47
2018-12-17T07:20:15.534Z,2.47
2018-12-17T07:20:56.095Z,2.49
2018-12-17T07:21:36.645Z,2.43
2018-12-17T07:22:17.193Z,2.5
2018-12-17T07:22:57.750Z,2.5
2018-12-17T07:23:38.397Z,2.56
2018-12-17T07:24:18.951Z,2.54
2018-12-17T07:24:59.622Z,2.61
2018-12-17T07:25:40.176Z,2.61
2018-12-17T07:26:20.736Z,2.57
2018-12-17T07:27:01.297Z,2.62
2018-12-17T07:27:41.840Z,2.56
2018-12-17T07:28:22.442Z,2.6
2018-12-17T07:29:03.131Z,2.56
2018-12-17T07:29:49.517Z,2.56
2018-12-17T07:30:24.254Z,2.62
2018-12-17T07:31:04.850Z,2.61
2018-12-17T07:31:45.452Z,2.62
2018-12-17T07:32:26.020Z,2.65
2018-12-17T07:33:06.635Z,2.62
2018-12-17T07:33:47.560Z,2.62
2018-12-17T07:34:28.248Z,2.6
2018-12-17T07:35:09.030Z,2.69
2018-12-17T07:35:49.617Z,2.62
2018-12-17T07:36:30.182Z,2.69
2018-12-17T07:37:10.726Z,2.62
2018-12-17T07:37:51.317Z,2.68
2018-12-17T07:38:31.893Z,2.68
2018-12-17T07:39:12.432Z,2.72
2018-12-17T07:39:53.178Z,2.69
2018-12-17T07:40:33.866Z,2.62
2018-12-17T07:41:14.433Z,2.65
2018-12-17T07:41:55.134Z,2.65
2018-12-17T07:42:35.977Z,2.6
2018-12-17T07:43:17.158Z,2.65
2018-12-17T07:43:57.454Z,2.69
2018-12-17T07:44:38.068Z,2.67
2018-12-17T07:45:18.625Z,2.65
2018-12-17T07:45:59.232Z,2.65
2018-12-17T07:46:40.304Z,2.68
2018-12-17T07:47:20.915Z,2.67
2018-12-17T07:48:01.498Z,2.64
2018-12-17T07:48:42.137Z,2.71
2018-12-17T07:49:23.672Z,2.74
2018-12-17T07:50:04.486Z,2.71
2018-12-17T07:50:45.134Z,2.72
2018-12-17T07:51:25.696Z,2.69
2018-12-17T07:52:06.307Z,2.71
2018-12-17T07:52:46.948Z,2.77
2018-12-17T07:53:27.746Z,2.74
2018-12-17T07:54:08.377Z,2.74
2018-12-17T07:54:49.220Z,2.75
2018-12-17T07:55:29.792Z,2.79
2018-12-17T07:56:10.392Z,2.71
2018-12-17T07:56:50.985Z,2.74
2018-12-17T07:57:31.558Z,2.71
2018-12-17T07:58:12.108Z,2.72
2018-12-17T07:58:52.728Z,2.82
2018-12-17T07:59:33.322Z,2.8
2018-12-17T08:00:13.929Z,2.92
2018-12-17T08:00:54.498Z,2.8
2018-12-17T08:01:35.066Z,2.83
2018-12-17T08:02:15.623Z,2.89
2018-12-17T08:02:56.194Z,2.82
2018-12-17T08:03:36.750Z,2.8
2018-12-17T08:04:17.321Z,2.83
2018-12-17T08:04:57.862Z,2.87
2018-12-17T08:05:38.446Z,2.86
2018-12-17T08:06:19.024Z,2.87
2018-12-17T08:06:59.696Z,2.9
2018-12-17T08:07:40.369Z,2.85
2018-12-17T08:08:20.934Z,2.87
2018-12-17T08:09:01.531Z,2.92
2018-12-17T08:09:42.088Z,2.86
2018-12-17T08:10:22.714Z,2.92
2018-12-17T08:11:03.327Z,2.83
2018-12-17T08:11:44.044Z,2.89
2018-12-17T08:12:24.627Z,2.85
2018-12-17T08:13:05.135Z,2.97
2018-12-17T08:13:45.688Z,2.95
2018-12-17T08:14:26.243Z,2.87
2018-12-17T08:15:06.802Z,2.87
2018-12-17T08:15:47.343Z,2.9
2018-12-17T08:16:27.940Z,2.85
2018-12-17T08:17:08.494Z,2.87
2018-12-17T08:17:49.104Z,2.85
2018-12-17T08:18:29.692Z,2.92
2018-12-17T08:19:10.281Z,2.85
2018-12-17T08:19:50.861Z,2.87
2018-12-17T08:20:31.454Z,3.03
2018-12-17T08:21:12.009Z,2.89
2018-12-17T08:21:52.588Z,2.85
2018-12-17T08:22:33.163Z,2.95
2018-12-17T08:23:13.717Z,2.9
2018-12-17T08:23:54.281Z,2.83
2018-12-17T08:24:34.823Z,2.95
2018-12-17T08:25:16.328Z,2.93
2018-12-17T08:25:57.876Z,3.01
2018-12-17T08:26:38.454Z,2.93
2018-12-17T08:27:19.055Z,2.87
2018-12-17T08:27:59.734Z,2.83
2018-12-17T08:28:40.331Z,2.92
2018-12-17T08:29:20.936Z,2.87
2018-12-17T08:30:03.973Z,2.98
2018-12-17T08:30:42.264Z,2.97
2018-12-17T08:31:22.828Z,2.98
2018-12-17T08:32:03.618Z,2.95
2018-12-17T08:32:44.187Z,2.98
2018-12-17T08:33:24.766Z,2.98
2018-12-17T08:34:05.332Z,2.97
2018-12-17T08:34:45.916Z,3.03
2018-12-17T08:35:26.461Z,2.97
2018-12-17T08:36:07.020Z,3.01
2018-12-17T08:36:47.571Z,3
2018-12-17T08:37:28.118Z,3.1
2018-12-17T08:38:08.699Z,3.03
2018-12-17T08:38:49.324Z,3.07
2018-12-17T08:39:29.869Z,3.08
2018-12-17T08:40:10.421Z,3.07
2018-12-17T08:40:51.002Z,3
2018-12-17T08:41:31.626Z,2.93
2018-12-17T08:42:12.134Z,2.97
2018-12-17T08:42:52.708Z,3
2018-12-17T08:43:33.290Z,3
2018-12-17T08:44:13.853Z,3
2018-12-17T08:44:54.419Z,3.01
2018-12-17T08:45:35.010Z,3.04
2018-12-17T08:46:15.561Z,3.03
2018-12-17T08:46:56.116Z,3.07
2018-12-17T08:47:36.682Z,3.01
2018-12-17T08:48:17.255Z,3.03
2018-12-17T08:48:57.814Z,3.07
2018-12-17T08:49:38.367Z,3.11
2018-12-17T08:50:18.911Z,3.11
2018-12-17T08:50:59.474Z,3.04
2018-12-17T08:51:40.039Z,3.08
2018-12-17T08:52:20.627Z,3.07
2018-12-17T08:53:01.167Z,3.11
2018-12-17T08:53:41.741Z,3.1
2018-12-17T08:54:22.316Z,3.08
2018-12-17T08:55:02.866Z,3.11
2018-12-17T08:55:43.426Z,3.07
2018-12-17T08:56:24.003Z,3.04
2018-12-17T08:57:04.584Z,3.03
2018-12-17T08:57:45.163Z,3.04
2018-12-17T08:58:25.728Z,3.11
2018-12-17T08:59:06.281Z,3.07
2018-12-17T08:59:46.866Z,3.13
2018-12-17T09:00:27.452Z,3.11
2018-12-17T09:01:08.035Z,3.05
2018-12-17T09:01:48.590Z,3.04
2018-12-17T09:02:29.143Z,3.04
2018-12-17T09:03:09.719Z,3.23
2018-12-17T09:03:50.279Z,3.16
2018-12-17T09:04:30.841Z,3.23